Pernille — 5BNZ2 — position and weather

sailwx.info

Track history (hours):
 
Tides and Currents Weather Stations Pressure Air Temp Water Temp Dewpoint Dewpoint Depression Visibility Wind Speed Wind Dir Waves Ship Positions

Pernille

Last reported at 2015-Mar-26 22:30 UTC. Time now 2015-Mar-29 17:26 UTC.
Position N 54°42' E 010°52'.

Length 82 m; draft 3.9 m.

Type: Cargo ship. MMSI: 212662000.

Date/timePositionNaut miles runAvg speedWind from/ knotsBaromVisibWave heightAir tempDewpointWater temp
2015-Mar-26 22:30N 54°42' E 010°52'2211.5
2015-Mar-26 20:33N 54°30' E 010°20'1010.1
2015-Mar-26 19:33N 54°22' E 010°09'1 0.9
2015-Mar-26 18:33N 54°22' E 010°07'7 6.8
2015-Mar-26 17:33N 54°21' E 009°56'7 7.5
2015-Mar-26 16:34N 54°19' E 009°43'18 7.8
2015-Mar-26 14:14N 54°08' E 009°20'5 7.4
2015-Mar-26 13:33N 54°03' E 009°18'5 5.0
2015-Mar-26 12:33N 53°58' E 009°15'1 1.5
2015-Mar-26 11:33N 53°57' E 009°14'4 4.3
2015-Mar-26 10:33N 53°54' E 009°09'1 1.4
2015-Mar-26 09:33N 53°53' E 009°07'2 2.0
2015-Mar-26 08:33N 53°52' E 009°03'6 6.0
2015-Mar-26 07:33N 53°50' E 008°54'9 8.6
2015-Mar-26 06:33N 53°54' E 008°41'9 9.0
2015-Mar-26 05:33N 53°59' E 008°27'1010.0
2015-Mar-26 04:32N 53°59' E 008°10'1010.3
2015-Mar-26 03:33N 54°03' E 007°54'1010.2
2015-Mar-26 02:33N 54°10' E 007°41'1110.8
2015-Mar-26 01:33N 54°20' E 007°36'1110.6
2015-Mar-26 00:33N 54°31' E 007°36'1010.1
2015-Mar-25 23:33N 54°40' E 007°41'3410.0
2015-Mar-25 20:09N 55°12' E 008°04'610.1
2015-Mar-25 19:32N 55°18' E 008°08'1010.2
2015-Mar-25 18:33N 55°27' E 008°16'6 6.3
2015-Mar-25 17:33N 55°28' E 008°27'0 0.0
2015-Mar-25 16:23N 55°28' E 008°27'0 0.0
2015-Mar-25 15:14N 55°28' E 008°27'0 0.0
2015-Mar-25 14:32N 55°28' E 008°27'0 0.0
2015-Mar-25 13:29N 55°28' E 008°27'0 0.0
2015-Mar-25 12:32N 55°28' E 008°27'0 0.0
2015-Mar-25 11:32N 55°28' E 008°27'0 0.0
2015-Mar-25 10:20N 55°28' E 008°27'0 0.0
2015-Mar-25 09:05N 55°28' E 008°27'0 0.0
2015-Mar-25 08:32N 55°28' E 008°27'0 0.0
2015-Mar-25 07:23N 55°28' E 008°27'2 2.7
2015-Mar-25 06:33N 55°29' E 008°24'9 9.0
2015-Mar-25 05:33N 55°24' E 008°10'1211.1
2015-Mar-25 04:31N 55°17' E 007°54'9410.5
2015-Mar-24 19:33N 54°23' E 005°41'1110.6
2015-Mar-24 18:33N 54°17' E 005°26'1110.6
2015-Mar-24 17:33N 54°11' E 005°11'10 9.9
2015-Mar-24 16:33N 54°04' E 004°58'10 9.9
2015-Mar-24 15:31N 53°54' E 004°55'10 9.2
2015-Mar-24 14:29N 53°45' E 004°52'18 9.1
2015-Mar-24 12:28N 53°27' E 004°43'8 9.0
2015-Mar-24 11:33N 53°19' E 004°37'24 9.6
2015-Mar-24 09:03N 52°58' E 004°19'610.3
2015-Mar-24 08:30N 52°53' E 004°15'1010.6
2015-Mar-24 07:33N 52°45' E 004°05'1110.9
2015-Mar-24 06:33N 52°37' E 003°52'8311.1
2015-Mar-23 23:07N 51°35' E 002°24'6 8.9
2015-Mar-23 22:30N 51°31' E 002°18'8 8.8
2015-Mar-23 21:33N 51°24' E 002°11'9 8.7
2015-Mar-23 20:33N 51°16' E 002°05'9 9.1
2015-Mar-23 19:33N 51°10' E 001°55'9 9.3
2015-Mar-23 18:33N 51°03' E 001°44'10 9.8
2015-Mar-23 17:32N 50°56' E 001°33'  
2015-Mar-20 20:28N 43°45' W 003°16'8 9.1
2015-Mar-20 19:33N 43°37' W 003°12'10 9.7
2015-Mar-20 18:33N 43°28' W 003°07'  
Track history (hours):
 
Tides and Currents Weather Stations Pressure Air Temp Water Temp Dewpoint Dewpoint Depression Visibility Wind Speed Wind Dir Waves Ship Positions

Pernille

Last reported at 2015-Mar-26 22:30 UTC. Time now 2015-Mar-29 17:26 UTC.
Position N 54°42' E 010°52'.

Length 82 m; draft 3.9 m.

Type: Cargo ship. MMSI: 212662000.

Date/timePositionNaut miles runAvg speedWind from/ knotsBaromVisibWave heightAir tempDewpointWater temp
2015-Mar-26 22:30N 54°42' E 010°52'2211.5
2015-Mar-26 20:33N 54°30' E 010°20'1010.1
2015-Mar-26 19:33N 54°22' E 010°09'1 0.9
2015-Mar-26 18:33N 54°22' E 010°07'7 6.8
2015-Mar-26 17:33N 54°21' E 009°56'7 7.5
2015-Mar-26 16:34N 54°19' E 009°43'18 7.8
2015-Mar-26 14:14N 54°08' E 009°20'5 7.4
2015-Mar-26 13:33N 54°03' E 009°18'5 5.0
2015-Mar-26 12:33N 53°58' E 009°15'1 1.5
2015-Mar-26 11:33N 53°57' E 009°14'4 4.3
2015-Mar-26 10:33N 53°54' E 009°09'1 1.4
2015-Mar-26 09:33N 53°53' E 009°07'2 2.0
2015-Mar-26 08:33N 53°52' E 009°03'6 6.0
2015-Mar-26 07:33N 53°50' E 008°54'9 8.6
2015-Mar-26 06:33N 53°54' E 008°41'9 9.0
2015-Mar-26 05:33N 53°59' E 008°27'1010.0
2015-Mar-26 04:32N 53°59' E 008°10'1010.3
2015-Mar-26 03:33N 54°03' E 007°54'1010.2
2015-Mar-26 02:33N 54°10' E 007°41'1110.8
2015-Mar-26 01:33N 54°20' E 007°36'1110.6
2015-Mar-26 00:33N 54°31' E 007°36'1010.1
2015-Mar-25 23:33N 54°40' E 007°41'3410.0
2015-Mar-25 20:09N 55°12' E 008°04'610.1
2015-Mar-25 19:32N 55°18' E 008°08'1010.2
2015-Mar-25 18:33N 55°27' E 008°16'6 6.3
2015-Mar-25 17:33N 55°28' E 008°27'0 0.0
2015-Mar-25 16:23N 55°28' E 008°27'0 0.0
2015-Mar-25 15:14N 55°28' E 008°27'0 0.0
2015-Mar-25 14:32N 55°28' E 008°27'0 0.0
2015-Mar-25 13:29N 55°28' E 008°27'0 0.0
2015-Mar-25 12:32N 55°28' E 008°27'0 0.0
2015-Mar-25 11:32N 55°28' E 008°27'0 0.0
2015-Mar-25 10:20N 55°28' E 008°27'0 0.0
2015-Mar-25 09:05N 55°28' E 008°27'0 0.0
2015-Mar-25 08:32N 55°28' E 008°27'0 0.0
2015-Mar-25 07:23N 55°28' E 008°27'2 2.7
2015-Mar-25 06:33N 55°29' E 008°24'9 9.0
2015-Mar-25 05:33N 55°24' E 008°10'1211.1
2015-Mar-25 04:31N 55°17' E 007°54'9410.5
2015-Mar-24 19:33N 54°23' E 005°41'1110.6
2015-Mar-24 18:33N 54°17' E 005°26'1110.6
2015-Mar-24 17:33N 54°11' E 005°11'10 9.9
2015-Mar-24 16:33N 54°04' E 004°58'10 9.9
2015-Mar-24 15:31N 53°54' E 004°55'10 9.2
2015-Mar-24 14:29N 53°45' E 004°52'18 9.1
2015-Mar-24 12:28N 53°27' E 004°43'8 9.0
2015-Mar-24 11:33N 53°19' E 004°37'24 9.6
2015-Mar-24 09:03N 52°58' E 004°19'610.3
2015-Mar-24 08:30N 52°53' E 004°15'1010.6
2015-Mar-24 07:33N 52°45' E 004°05'1110.9
2015-Mar-24 06:33N 52°37' E 003°52'8311.1
2015-Mar-23 23:07N 51°35' E 002°24'6 8.9
2015-Mar-23 22:30N 51°31' E 002°18'8 8.8
2015-Mar-23 21:33N 51°24' E 002°11'9 8.7
2015-Mar-23 20:33N 51°16' E 002°05'9 9.1
2015-Mar-23 19:33N 51°10' E 001°55'9 9.3
2015-Mar-23 18:33N 51°03' E 001°44'10 9.8
2015-Mar-23 17:32N 50°56' E 001°33'  
2015-Mar-20 20:28N 43°45' W 003°16'8 9.1
2015-Mar-20 19:33N 43°37' W 003°12'10 9.7
2015-Mar-20 18:33N 43°28' W 003°07'  

Dump ship's entire track history